Clarkston, WA

1:40 AM PDT on March 23, 2017 (GMT -0700)
Downtown Clarkston 8TH ST | | Change Station
Active Advisory: Flood Warning

Elev 846 ft 46.41 °N, 117.05 °W | Updated 9 seconds ago

Mostly Cloudy
Mostly Cloudy
38.7 °F
Feels Like 39 °F
N
0.0
Wind Variable Wind from WSW

Today
High -- | Low -- °F
--% Chance of Precip.
Yesterday
High -- | Low -- °F
Precip. -- in
Pressure 30.01 in
Visibility 0.2 miles
Clouds
Windchill 39 °F
Dew Point 38 °F
Humidity 98%
Rainfall 0.00 in
Snow Depth Not available.
6:44 AM 7:05 PM
Waning Crescent, 25% visible
SPECI KLWS 230819Z AUTO 00000KT 1/4SM FG VV001 05/04 A3001 RMK AO2 T00500039
Pressure 30.01 in
Visibility 0.2 miles
Clouds
Windchill 39 °F
Dew Point 38 °F
Humidity 98%
Rainfall 0.00 in
Snow Depth Not available.
6:44 AM 7:05 PM
Waning Crescent, 25% visible
SPECI KLWS 230819Z AUTO 00000KT 1/4SM FG VV001 05/04 A3001 RMK AO2 T00500039

Get Your Daily Forecast Email!

Thanks for signing up!

Be on the lookout for a verification email in your inbox.

You'll start receiving severe weather alerts in your inbox..

×

10-Day Weather Forecast

Almanac

Astronomy

Mar. 23, 2017 Rise Set
Actual Time
Civil Twilight
Nautical Twilight
Astronomical Twilight
Moon
Length of Visible Light
Length of Day
Tomorrow will be .
, % of the Moon is Illuminated

Today's Extremes

State Highs State Lows

Community

WunderPhotos

Upload Photos

1,962,540 photos uploaded!

WunderBlog® & News

Nearby

Air Quality

  Air Quality AQ Index Pollutant
Not available.

Snow Depth

Station Depth Elevation

Earthquake Activity

City Distance Mag. Time & Date
Minimum magnitude displayed is 2.5.

Earthquake Activity

City Distance Mag. Time & Date
Minimum magnitude displayed is 2.5.

Coastal Water Temperatures

Place Temperature

Stations

Nearby Weather Stations

Station Location Temp. Windchill Dew Point Humidity Wind Precip. Elev Updated Type
                   

Watches & Warnings

Flood Warning
Issued: 6:25 PM PDT Mar. 22, 2017 – National Weather Service

The Flood Warning continues for
the grande ronde river at Troy.
* Until Tuesday March 28.
* At 6:00 PM Wednesday, the stage was 9.6 feet.
* Flood stage is 10.0 feet.
* Minor flooding is forecast.
* Forecast... rise above flood stage by Saturday morning and continue
to rise to near 10.3 feet by Saturday afternoon. The river will
fall below flood stage by Tuesday morning.


Lat... Lon 4591 11743 4595 11745 4599 11739 4605 11731 4602 11727